< < Back
Terminal Aerodrome Forecast


Current Version              Previous Versions:   1  2  3  4  5  6  7  8  9  

Terminal Aerodrome Forecast

728
FTUS42 KILM 042300 CCA
TAFILM
TAF COR
KILM 042342Z 0500/0524 20013G29KT P6SM SCT005 WS012/22040KT
     FM050600 21009KT 2SM BR BKN006 WS010/22035KT
     FM051400 23010G18KT P6SM VCSH SCT010 SCT035
     FM052100 36014G23KT P6SM -RA OVC012=



Latest METAR

403
SAUS70 KWBC 042358
MTRILM
METAR KILM 042353Z AUTO 21018G27KT 10SM FEW012 19/17 A2997 RMK AO2 PK
WND 22027/2351 SLP147 T01940172 10250 20194 55000


USA.gov is the U.S. government's official web portal to all federal, state and local government web resources and services.